createdAt,value
2022-08-05T00:00:48.432Z,99.90
2022-08-05T00:03:17.191Z,99.90
2022-08-05T00:06:04.679Z,99.90
2022-08-05T00:08:34.607Z,99.90
2022-08-05T00:11:23.875Z,99.90
2022-08-05T00:13:54.685Z,99.90
2022-08-05T00:16:36.189Z,99.90
2022-08-05T00:19:08.750Z,99.90
2022-08-05T00:21:36.174Z,99.90
2022-08-05T00:24:05.201Z,99.90
2022-08-05T00:26:37.792Z,99.90
2022-08-05T00:29:04.649Z,99.90
2022-08-05T00:31:53.156Z,99.90
2022-08-05T00:34:54.424Z,99.90
2022-08-05T00:37:10.449Z,99.90
2022-08-05T00:39:44.115Z,99.90
2022-08-05T00:42:11.632Z,99.90
2022-08-05T00:44:58.572Z,99.90
2022-08-05T00:47:26.614Z,99.90
2022-08-05T00:50:13.441Z,99.90
2022-08-05T00:52:40.467Z,99.90
2022-08-05T00:55:07.559Z,99.90
2022-08-05T00:57:55.557Z,99.90
2022-08-05T01:00:22.003Z,99.90
2022-08-05T01:02:53.120Z,99.90
2022-08-05T01:05:20.112Z,99.90
2022-08-05T01:08:42.156Z,99.90
2022-08-05T01:10:54.125Z,99.90
2022-08-05T01:13:57.373Z,99.90
2022-08-05T01:16:40.304Z,99.90
2022-08-05T01:19:56.870Z,99.90
2022-08-05T01:22:37.966Z,99.90
2022-08-05T01:25:13.597Z,99.90
2022-08-05T01:28:14.430Z,99.90
2022-08-05T01:30:52.412Z,99.90
2022-08-05T01:33:35.538Z,99.90
2022-08-05T01:36:12.888Z,99.90
2022-08-05T01:38:45.707Z,99.90
2022-08-05T01:41:18.496Z,99.90
2022-08-05T01:43:50.941Z,99.90
2022-08-05T01:46:41.648Z,99.90
2022-08-05T01:49:23.168Z,99.90
2022-08-05T01:51:58.132Z,99.90
2022-08-05T01:54:29.537Z,99.90
2022-08-05T01:58:10.035Z,99.90
2022-08-05T01:59:48.391Z,99.90
2022-08-05T02:02:17.880Z,99.90
2022-08-05T02:04:49.509Z,99.90
2022-08-05T02:07:21.607Z,99.90
2022-08-05T02:09:48.693Z,99.90
2022-08-05T02:12:22.608Z,99.90
2022-08-05T02:15:12.264Z,99.90
2022-08-05T02:18:33.136Z,99.90
2022-08-05T02:20:47.647Z,99.90
2022-08-05T02:23:20.194Z,99.90
2022-08-05T02:25:50.565Z,99.90
2022-08-05T02:28:29.074Z,99.90
2022-08-05T02:31:05.951Z,99.90
2022-08-05T02:33:42.213Z,99.90
2022-08-05T02:36:13.276Z,99.90
2022-08-05T02:38:53.680Z,99.90
2022-08-05T02:41:23.127Z,99.90
2022-08-05T02:44:02.640Z,99.90
2022-08-05T02:46:53.807Z,99.90
2022-08-05T02:49:35.966Z,99.90
2022-08-05T02:52:07.732Z,99.90
2022-08-05T02:54:37.163Z,99.90
2022-08-05T02:58:09.336Z,99.90
2022-08-05T02:59:57.681Z,99.90
2022-08-05T03:02:29.659Z,99.90
2022-08-05T03:04:58.020Z,99.90
2022-08-05T03:07:59.248Z,99.90
2022-08-05T03:10:24.354Z,99.90
2022-08-05T03:12:54.158Z,99.90
2022-08-05T03:15:23.431Z,99.90
2022-08-05T03:17:53.856Z,99.90
2022-08-05T03:20:22.276Z,99.90
2022-08-05T03:22:50.697Z,99.90
2022-08-05T03:25:33.666Z,99.90
2022-08-05T03:28:08.884Z,99.90
2022-08-05T03:30:38.348Z,99.90
2022-08-05T03:33:08.379Z,99.90
2022-08-05T03:35:40.739Z,99.90
2022-08-05T03:38:12.135Z,99.90
2022-08-05T03:40:45.140Z,99.90
2022-08-05T03:43:58.579Z,99.90
2022-08-05T03:46:02.916Z,99.90
2022-08-05T03:48:30.501Z,99.90
2022-08-05T03:52:37.212Z,99.90
2022-08-05T03:55:34.363Z,99.90
2022-08-05T03:57:42.081Z,99.90
2022-08-05T04:00:15.500Z,99.90
2022-08-05T04:02:58.789Z,99.90
2022-08-05T04:05:33.560Z,99.90
2022-08-05T04:08:14.915Z,99.90
2022-08-05T04:10:53.622Z,99.90
2022-08-05T04:13:21.877Z,99.90
2022-08-05T04:15:52.642Z,99.90
2022-08-05T04:18:29.766Z,99.90
2022-08-05T04:20:58.093Z,99.90
2022-08-05T04:24:04.861Z,99.90
2022-08-05T04:26:14.737Z,99.90
2022-08-05T04:28:51.148Z,99.90
2022-08-05T04:31:19.046Z,99.90
2022-08-05T04:34:17.928Z,99.90
2022-08-05T04:36:44.921Z,99.90
2022-08-05T04:39:13.559Z,99.90
2022-08-05T04:41:40.878Z,99.90
2022-08-05T04:44:09.037Z,99.90
2022-08-05T04:46:37.758Z,99.90
2022-08-05T04:49:06.039Z,99.90
2022-08-05T04:51:42.701Z,99.90
2022-08-05T04:54:10.428Z,99.90
2022-08-05T04:56:39.407Z,99.90
2022-08-05T04:59:21.523Z,99.90
2022-08-05T05:02:07.946Z,99.90
2022-08-05T05:04:47.889Z,99.90
2022-08-05T05:07:17.676Z,99.90
2022-08-05T05:09:45.376Z,99.90
2022-08-05T05:12:12.348Z,99.90
2022-08-05T05:14:49.578Z,99.90
2022-08-05T05:17:23.347Z,99.90
2022-08-05T05:19:55.129Z,99.90
2022-08-05T05:22:26.543Z,99.90
2022-08-05T05:24:59.812Z,99.90
2022-08-05T05:27:44.818Z,99.90
2022-08-05T05:30:29.456Z,99.90
2022-08-05T05:33:00.568Z,99.90
2022-08-05T05:35:31.579Z,99.90
2022-08-05T05:38:05.677Z,99.90
2022-08-05T05:40:36.052Z,99.90
2022-08-05T05:43:03.475Z,99.90
2022-08-05T05:45:30.481Z,99.90
2022-08-05T05:48:06.886Z,99.90
2022-08-05T05:50:43.828Z,99.90
2022-08-05T05:53:22.076Z,99.90
2022-08-05T05:55:52.511Z,99.90
2022-08-05T05:58:30.380Z,99.90
2022-08-05T06:01:02.396Z,99.90
2022-08-05T06:04:01.009Z,99.90
2022-08-05T06:06:31.202Z,99.90
2022-08-05T06:09:00.579Z,99.90
2022-08-05T06:11:28.941Z,99.90
2022-08-05T06:13:56.219Z,99.90
2022-08-05T06:16:30.547Z,99.90
2022-08-05T06:19:01.832Z,99.90
2022-08-05T06:21:37.237Z,99.90
2022-08-05T06:24:11.921Z,99.90
2022-08-05T06:26:51.463Z,99.90
2022-08-05T06:29:43.018Z,99.90
2022-08-05T06:32:21.339Z,99.90
2022-08-05T06:34:53.291Z,99.90
2022-08-05T06:37:57.376Z,99.90
2022-08-05T06:40:08.557Z,99.90
2022-08-05T06:42:36.405Z,99.90
2022-08-05T06:45:08.637Z,99.90
2022-08-05T06:48:36.869Z,99.90
2022-08-05T06:50:23.593Z,99.90
2022-08-05T06:52:58.446Z,99.90
2022-08-05T06:55:36.235Z,99.90
2022-08-05T06:58:29.035Z,99.90
2022-08-05T07:00:51.067Z,99.90
2022-08-05T07:03:18.387Z,99.90
2022-08-05T07:05:46.460Z,99.90
2022-08-05T07:08:13.646Z,99.90
2022-08-05T07:10:53.483Z,99.90
2022-08-05T07:13:57.089Z,99.90
2022-08-05T07:17:56.289Z,99.90
2022-08-05T07:20:23.093Z,99.90
2022-08-05T07:22:17.900Z,99.90
2022-08-05T07:24:52.516Z,99.90
2022-08-05T07:27:21.580Z,99.90
2022-08-05T07:30:28.131Z,99.90
2022-08-05T07:32:36.950Z,99.90
2022-08-05T07:36:03.870Z,99.90
2022-08-05T07:38:01.365Z,99.90
2022-08-05T07:40:32.936Z,99.90
2022-08-05T07:43:04.681Z,99.90
2022-08-05T07:45:56.537Z,99.90
2022-08-05T07:49:02.529Z,99.90
2022-08-05T07:51:23.793Z,99.90
2022-08-05T07:53:58.530Z,99.90
2022-08-05T07:56:39.121Z,99.90
2022-08-05T07:59:15.735Z,99.90
2022-08-05T08:01:52.242Z,99.90
2022-08-05T08:04:38.181Z,99.90
2022-08-05T08:07:07.150Z,99.90
2022-08-05T08:09:34.635Z,99.90
2022-08-05T08:12:10.656Z,99.90
2022-08-05T08:14:46.861Z,99.90
2022-08-05T08:17:16.230Z,99.90
2022-08-05T08:20:43.012Z,99.90
2022-08-05T08:22:32.543Z,99.90
2022-08-05T08:25:03.334Z,99.90
2022-08-05T08:27:44.771Z,99.90
2022-08-05T08:30:29.919Z,99.90
2022-08-05T08:33:08.992Z,99.90
2022-08-05T08:35:52.379Z,99.90
2022-08-05T08:38:35.142Z,99.90
2022-08-05T08:41:07.456Z,99.90
2022-08-05T08:45:16.608Z,99.90
2022-08-05T08:46:25.187Z,99.90
2022-08-05T08:49:07.751Z,99.90
2022-08-05T08:52:05.537Z,99.90
2022-08-05T08:54:33.410Z,99.90
2022-08-05T08:57:11.344Z,99.90
2022-08-05T08:59:39.082Z,99.90
2022-08-05T09:02:09.312Z,99.90
2022-08-05T09:04:57.876Z,99.90
2022-08-05T09:07:29.038Z,99.90
2022-08-05T09:10:07.189Z,99.90
2022-08-05T09:12:34.994Z,99.90
2022-08-05T09:15:06.019Z,99.90
2022-08-05T09:17:40.631Z,99.90
2022-08-05T09:20:10.297Z,99.90
2022-08-05T09:23:18.553Z,99.90
2022-08-05T09:26:00.818Z,99.90
2022-08-05T09:28:33.540Z,99.90
2022-08-05T09:31:43.863Z,99.90
2022-08-05T09:33:56.754Z,99.90
2022-08-05T09:36:27.928Z,99.90
2022-08-05T09:39:03.917Z,99.20
2022-08-05T09:42:24.166Z,99.20
2022-08-05T09:44:57.464Z,98.60
2022-08-05T09:47:47.984Z,98.40
2022-08-05T09:50:38.054Z,98.40
2022-08-05T09:53:06.902Z,99.60
2022-08-05T09:55:58.278Z,98.20
2022-08-05T09:58:24.377Z,98.00
2022-08-05T10:00:56.873Z,97.90
2022-08-05T10:03:24.930Z,97.80
2022-08-05T10:06:15.832Z,97.70
2022-08-05T10:08:43.129Z,98.20
2022-08-05T10:11:18.110Z,97.10
2022-08-05T10:13:48.361Z,97.30
2022-08-05T10:16:37.980Z,97.10
2022-08-05T10:19:23.722Z,96.80
2022-08-05T10:21:59.093Z,96.60
2022-08-05T10:24:27.126Z,96.90
2022-08-05T10:26:56.318Z,96.70
2022-08-05T10:30:06.668Z,96.30
2022-08-05T10:32:55.702Z,96.20
2022-08-05T10:35:04.100Z,96.50
2022-08-05T10:37:37.124Z,96.20
2022-08-05T10:40:29.092Z,96.50
2022-08-05T10:43:02.694Z,96.20
2022-08-05T10:45:40.419Z,95.70
2022-08-05T10:48:52.414Z,94.90
2022-08-05T10:51:28.536Z,95.00
2022-08-05T10:53:58.171Z,95.00
2022-08-05T10:56:30.968Z,94.20
2022-08-05T10:59:11.458Z,94.60
2022-08-05T11:01:54.837Z,94.70
2022-08-05T11:04:31.099Z,95.00
2022-08-05T11:07:01.667Z,94.90
2022-08-05T11:09:46.061Z,95.30
2022-08-05T11:12:45.423Z,96.00
2022-08-05T11:15:59.338Z,95.20
2022-08-05T11:18:29.921Z,94.80
2022-08-05T11:20:59.433Z,94.90
2022-08-05T11:23:33.402Z,94.40
2022-08-05T11:26:10.453Z,94.90
2022-08-05T11:28:39.254Z,94.00
2022-08-05T11:31:07.132Z,94.40
2022-08-05T11:33:47.746Z,94.30
2022-08-05T11:36:34.040Z,94.00
2022-08-05T11:39:01.852Z,93.20
2022-08-05T11:41:56.074Z,93.00
2022-08-05T11:44:40.795Z,93.10
2022-08-05T11:47:11.227Z,92.30
2022-08-05T11:49:49.831Z,92.00
2022-08-05T11:52:29.061Z,92.20
2022-08-05T11:54:58.446Z,91.80
2022-08-05T11:57:30.672Z,92.10
2022-08-05T12:00:29.178Z,92.30
2022-08-05T12:02:57.560Z,92.20
2022-08-05T12:05:32.323Z,92.20
2022-08-05T12:08:10.828Z,92.00
2022-08-05T12:10:45.435Z,92.10
2022-08-05T12:13:27.735Z,91.00
2022-08-05T12:16:14.521Z,91.60
2022-08-05T12:18:49.399Z,90.00
2022-08-05T12:21:26.904Z,90.20
2022-08-05T12:24:00.076Z,90.20
2022-08-05T12:26:32.879Z,90.10
2022-08-05T12:29:01.465Z,90.30
2022-08-05T12:31:45.884Z,90.60
2022-08-05T12:34:20.680Z,91.10
2022-08-05T12:36:52.323Z,88.90
2022-08-05T12:39:19.549Z,86.90
2022-08-05T12:41:46.577Z,87.20
2022-08-05T12:44:28.419Z,88.50
2022-08-05T12:47:02.259Z,88.00
2022-08-05T12:50:03.355Z,88.70
2022-08-05T12:52:32.337Z,88.40
2022-08-05T12:55:15.830Z,88.90
2022-08-05T12:58:38.274Z,89.70
2022-08-05T13:02:01.240Z,88.20
2022-08-05T13:03:21.171Z,89.00
2022-08-05T13:05:50.068Z,90.10
2022-08-05T13:08:20.028Z,90.20
2022-08-05T13:10:50.531Z,90.50
2022-08-05T13:14:05.788Z,90.20
2022-08-05T13:16:13.134Z,89.90
2022-08-05T13:18:55.091Z,90.00
2022-08-05T13:21:27.981Z,90.00
2022-08-05T13:23:55.686Z,88.50
2022-08-05T13:26:29.801Z,88.00
2022-08-05T13:28:59.271Z,88.90
2022-08-05T13:32:02.795Z,88.70
2022-08-05T13:34:22.728Z,88.80
2022-08-05T13:36:52.900Z,90.10
2022-08-05T13:39:24.564Z,90.40
2022-08-05T13:42:07.167Z,87.70
2022-08-05T13:44:34.620Z,87.30
2022-08-05T13:47:08.509Z,88.50
2022-08-05T13:49:36.345Z,88.70
2022-08-05T13:52:18.622Z,87.80
2022-08-05T13:54:57.536Z,88.20
2022-08-05T13:57:48.960Z,87.40
2022-08-05T14:00:15.000Z,86.80
2022-08-05T14:02:44.340Z,86.80
2022-08-05T14:05:15.353Z,87.30
2022-08-05T14:08:01.115Z,88.70
2022-08-05T14:10:33.053Z,87.60
2022-08-05T14:13:00.011Z,87.10
2022-08-05T14:16:06.928Z,86.90
2022-08-05T14:18:17.894Z,87.90
2022-08-05T14:20:47.952Z,87.00
2022-08-05T14:23:25.169Z,87.80
2022-08-05T14:25:58.856Z,86.10
2022-08-05T14:28:30.185Z,87.70
2022-08-05T14:30:58.226Z,85.90
2022-08-05T14:33:25.338Z,85.40
2022-08-05T14:35:54.347Z,86.30
2022-08-05T14:38:33.185Z,85.80
2022-08-05T14:41:06.422Z,86.70
2022-08-05T14:44:02.503Z,84.80
2022-08-05T14:46:28.769Z,85.90
2022-08-05T14:49:06.209Z,86.80
2022-08-05T14:51:42.487Z,85.00
2022-08-05T14:54:28.386Z,83.60
2022-08-05T14:56:58.074Z,84.90
2022-08-05T14:59:25.279Z,85.10
2022-08-05T15:01:57.726Z,84.90
2022-08-05T15:04:27.420Z,84.90
2022-08-05T15:06:55.969Z,84.20
2022-08-05T15:09:52.169Z,84.20
2022-08-05T15:12:11.737Z,84.10
2022-08-05T15:14:50.257Z,84.00
2022-08-05T15:17:46.436Z,83.70
2022-08-05T15:20:19.055Z,82.90
2022-08-05T15:22:54.978Z,83.50
2022-08-05T15:25:51.406Z,83.70
2022-08-05T15:28:13.345Z,82.80
2022-08-05T15:30:43.428Z,83.20
2022-08-05T15:33:10.689Z,84.00
2022-08-05T15:35:45.411Z,83.20
2022-08-05T15:38:36.156Z,82.80
2022-08-05T15:41:22.985Z,82.70
2022-08-05T15:43:47.407Z,83.00
2022-08-05T15:46:14.644Z,81.90
2022-08-05T15:48:52.994Z,81.80
2022-08-05T15:52:09.894Z,82.80
2022-08-05T15:54:16.101Z,85.70
2022-08-05T15:56:43.607Z,83.10
2022-08-05T15:59:21.664Z,82.20
2022-08-05T16:01:52.776Z,82.20
2022-08-05T16:04:21.052Z,84.00
2022-08-05T16:06:53.928Z,83.20
2022-08-05T16:09:23.396Z,81.00
2022-08-05T16:11:53.163Z,81.90
2022-08-05T16:14:21.850Z,81.60
2022-08-05T16:16:49.838Z,80.90
2022-08-05T16:19:19.169Z,80.40
2022-08-05T16:22:04.257Z,81.10
2022-08-05T16:24:39.778Z,81.50
2022-08-05T16:27:09.615Z,80.60
2022-08-05T16:29:47.230Z,81.50
2022-08-05T16:32:17.520Z,80.90
2022-08-05T16:34:55.380Z,80.30
2022-08-05T16:38:03.582Z,80.30
2022-08-05T16:40:24.828Z,80.40
2022-08-05T16:42:56.089Z,80.30
2022-08-05T16:46:04.637Z,79.80
2022-08-05T16:48:10.289Z,79.80
2022-08-05T16:50:37.528Z,79.10
2022-08-05T16:53:12.596Z,79.90
2022-08-05T16:55:49.620Z,79.50
2022-08-05T16:58:19.885Z,79.90
2022-08-05T17:00:48.425Z,79.80
2022-08-05T17:03:20.068Z,79.00
2022-08-05T17:05:53.960Z,79.30
2022-08-05T17:08:36.516Z,78.70
2022-08-05T17:11:16.905Z,79.10
2022-08-05T17:13:45.098Z,78.90
2022-08-05T17:16:32.672Z,79.10
2022-08-05T17:19:00.719Z,79.00
2022-08-05T17:21:35.421Z,78.10
2022-08-05T17:24:19.324Z,77.70
2022-08-05T17:26:52.685Z,78.70
2022-08-05T17:29:22.759Z,78.40
2022-08-05T17:31:59.941Z,77.20
2022-08-05T17:34:30.130Z,78.40
2022-08-05T17:37:00.275Z,77.30
2022-08-05T17:39:34.640Z,76.90
2022-08-05T17:42:28.611Z,76.30
2022-08-05T17:44:50.366Z,76.20
2022-08-05T17:47:22.116Z,75.70
2022-08-05T17:49:52.133Z,76.50
2022-08-05T17:52:30.756Z,77.00
2022-08-05T17:54:58.292Z,76.60
2022-08-05T17:57:25.165Z,75.60
2022-08-05T18:00:05.219Z,75.60
2022-08-05T18:02:35.827Z,74.90
2022-08-05T18:05:06.990Z,75.50
2022-08-05T18:07:41.280Z,74.60
2022-08-05T18:10:11.021Z,75.30
2022-08-05T18:12:38.840Z,74.10
2022-08-05T18:15:06.580Z,73.30
2022-08-05T18:18:01.211Z,73.50
2022-08-05T18:20:29.328Z,72.50
2022-08-05T18:22:58.629Z,71.50
2022-08-05T18:25:32.693Z,71.20
2022-08-05T18:28:04.740Z,70.50
2022-08-05T18:30:33.259Z,69.90
2022-08-05T18:33:01.315Z,70.50
2022-08-05T18:35:59.993Z,69.60
2022-08-05T18:38:19.619Z,72.00
2022-08-05T18:41:55.475Z,68.80
2022-08-05T18:43:42.788Z,68.60
2022-08-05T18:46:15.935Z,69.90
2022-08-05T18:48:52.065Z,68.90
2022-08-05T18:52:03.202Z,67.90
2022-08-05T18:54:31.159Z,67.40
2022-08-05T18:57:02.229Z,67.80
2022-08-05T18:59:43.838Z,68.40
2022-08-05T19:02:36.565Z,68.90
2022-08-05T19:06:05.512Z,67.00
2022-08-05T19:07:55.325Z,67.00
2022-08-05T19:10:28.572Z,67.30
2022-08-05T19:12:56.726Z,67.30
2022-08-05T19:15:57.537Z,66.70
2022-08-05T19:18:13.509Z,67.00
2022-08-05T19:20:52.203Z,66.60
2022-08-05T19:24:03.621Z,68.20
2022-08-05T19:26:09.396Z,67.10
2022-08-05T19:28:42.211Z,67.80
2022-08-05T19:31:13.230Z,67.20
2022-08-05T19:33:48.313Z,68.20
2022-08-05T19:36:29.383Z,67.50
2022-08-05T19:39:00.545Z,67.60
2022-08-05T19:41:58.198Z,67.90
2022-08-05T19:44:19.287Z,67.90
2022-08-05T19:46:46.394Z,67.90
2022-08-05T19:49:17.146Z,69.50
2022-08-05T19:52:04.938Z,67.50
2022-08-05T19:54:34.245Z,67.90
2022-08-05T19:57:06.806Z,68.30
2022-08-05T19:59:54.992Z,68.80
2022-08-05T20:02:25.993Z,68.20
2022-08-05T20:04:54.856Z,68.40
2022-08-05T20:07:46.567Z,71.60
2022-08-05T20:10:13.898Z,68.80
2022-08-05T20:12:46.350Z,68.80
2022-08-05T20:15:48.620Z,69.40
2022-08-05T20:18:10.922Z,69.60
2022-08-05T20:20:55.036Z,68.60
2022-08-05T20:23:22.577Z,68.60
2022-08-05T20:25:49.468Z,70.00
2022-08-05T20:28:19.484Z,69.30
2022-08-05T20:30:47.922Z,68.80
2022-08-05T20:33:16.539Z,68.50
2022-08-05T20:35:45.483Z,68.20
2022-08-05T20:38:20.199Z,68.50
2022-08-05T20:40:55.474Z,68.80
2022-08-05T20:43:33.147Z,70.10
2022-08-05T20:46:18.234Z,69.00
2022-08-05T20:48:50.976Z,69.00
2022-08-05T20:51:18.216Z,68.60
2022-08-05T20:53:56.496Z,68.40
2022-08-05T20:56:31.921Z,69.30
2022-08-05T20:59:11.310Z,69.00
2022-08-05T21:01:47.157Z,68.50
2022-08-05T21:04:14.435Z,68.20
2022-08-05T21:06:45.306Z,68.30
2022-08-05T21:09:14.943Z,68.10
2022-08-05T21:12:07.741Z,68.10
2022-08-05T21:14:34.926Z,67.70
2022-08-05T21:17:05.473Z,67.80
2022-08-05T21:19:47.251Z,68.50
2022-08-05T21:22:17.605Z,68.00
2022-08-05T21:24:45.664Z,68.50
2022-08-05T21:27:16.202Z,68.10
2022-08-05T21:29:43.554Z,68.30
2022-08-05T21:32:19.800Z,68.60
2022-08-05T21:35:09.012Z,69.10
2022-08-05T21:37:34.067Z,69.20
2022-08-05T21:40:05.813Z,69.00
2022-08-05T21:42:44.675Z,69.30
2022-08-05T21:45:24.254Z,70.20
2022-08-05T21:47:56.774Z,70.50
2022-08-05T21:50:26.585Z,70.10
2022-08-05T21:52:59.094Z,70.90
2022-08-05T21:56:01.023Z,70.30
2022-08-05T21:58:19.994Z,69.80
2022-08-05T22:00:51.888Z,70.30
2022-08-05T22:03:20.562Z,70.00
2022-08-05T22:06:06.459Z,69.70
2022-08-05T22:08:35.326Z,69.90
2022-08-05T22:11:02.237Z,70.60
2022-08-05T22:14:32.285Z,70.30
2022-08-05T22:16:41.098Z,70.90
2022-08-05T22:19:15.200Z,71.50
2022-08-05T22:21:54.700Z,70.60
2022-08-05T22:24:52.512Z,70.90
2022-08-05T22:28:09.658Z,70.80
2022-08-05T22:30:35.273Z,71.40
2022-08-05T22:33:15.275Z,71.20
2022-08-05T22:35:49.150Z,72.70
2022-08-05T22:38:17.282Z,71.70
2022-08-05T22:40:49.775Z,72.40
2022-08-05T22:43:37.260Z,71.70
2022-08-05T22:46:12.089Z,71.70
2022-08-05T22:48:41.884Z,72.20
2022-08-05T22:51:22.825Z,72.50
2022-08-05T22:53:56.190Z,72.50
2022-08-05T22:56:30.326Z,72.40
2022-08-05T22:59:04.605Z,72.60
2022-08-05T23:01:50.907Z,73.70
2022-08-05T23:04:32.207Z,72.70
2022-08-05T23:06:59.067Z,73.90
2022-08-05T23:09:27.088Z,73.00
2022-08-05T23:12:13.046Z,74.30
2022-08-05T23:14:39.884Z,73.70
2022-08-05T23:17:32.642Z,73.40
2022-08-05T23:20:02.611Z,73.50
2022-08-05T23:22:30.759Z,74.00
2022-08-05T23:24:57.786Z,73.90
2022-08-05T23:27:31.211Z,74.00
2022-08-05T23:30:10.560Z,74.10
2022-08-05T23:32:37.913Z,74.30
2022-08-05T23:35:12.389Z,74.90
2022-08-05T23:37:39.404Z,75.20
2022-08-05T23:40:07.691Z,75.00
2022-08-05T23:42:37.445Z,75.30
2022-08-05T23:45:14.311Z,75.40
2022-08-05T23:47:47.690Z,75.60
2022-08-05T23:50:15.363Z,75.40
2022-08-05T23:52:50.064Z,76.00
2022-08-05T23:55:19.217Z,75.90
2022-08-05T23:57:48.997Z,76.30
